sensor_id;sensor_type;location;lat;lon;timestamp;pressure;altitude;pressure_sealevel;temperature;humidity
40946;BME280;55635;50.264;11.918;2023-04-15T00:00:58;94537.53;;;8.74;85.99
40946;BME280;55635;50.264;11.918;2023-04-15T00:03:39;94531.81;;;8.64;86.26
40946;BME280;55635;50.264;11.918;2023-04-15T00:06:21;94529.16;;;8.57;86.16
40946;BME280;55635;50.264;11.918;2023-04-15T00:09:02;94537.50;;;8.61;85.75
40946;BME280;55635;50.264;11.918;2023-04-15T00:11:45;94527.34;;;8.58;85.75
40946;BME280;55635;50.264;11.918;2023-04-15T00:14:25;94523.09;;;8.70;85.55
40946;BME280;55635;50.264;11.918;2023-04-15T00:17:06;94520.59;;;8.49;85.59
40946;BME280;55635;50.264;11.918;2023-04-15T00:19:48;94523.84;;;8.51;85.76
40946;BME280;55635;50.264;11.918;2023-04-15T00:22:29;94520.00;;;8.53;85.57
40946;BME280;55635;50.264;11.918;2023-04-15T00:25:11;94518.56;;;8.51;85.84
40946;BME280;55635;50.264;11.918;2023-04-15T00:27:51;94514.72;;;8.60;85.56
40946;BME280;55635;50.264;11.918;2023-04-15T00:30:33;94526.16;;;8.80;85.16
40946;BME280;55635;50.264;11.918;2023-04-15T00:33:15;94514.34;;;8.69;85.90
40946;BME280;55635;50.264;11.918;2023-04-15T00:35:57;94517.16;;;8.55;86.03
40946;BME280;55635;50.264;11.918;2023-04-15T00:38:38;94519.59;;;8.63;85.74
40946;BME280;55635;50.264;11.918;2023-04-15T00:41:20;94513.72;;;8.61;85.71
40946;BME280;55635;50.264;11.918;2023-04-15T00:44:02;94513.53;;;8.69;85.15
40946;BME280;55635;50.264;11.918;2023-04-15T00:46:47;94509.81;;;8.50;85.24
40946;BME280;55635;50.264;11.918;2023-04-15T00:49:30;94508.84;;;8.58;85.21
40946;BME280;55635;50.264;11.918;2023-04-15T00:52:12;94496.78;;;8.36;85.67
40946;BME280;55635;50.264;11.918;2023-04-15T00:54:56;94501.91;;;8.44;85.40
40946;BME280;55635;50.264;11.918;2023-04-15T00:57:38;94496.38;;;8.39;85.40
40946;BME280;55635;50.264;11.918;2023-04-15T01:00:20;94490.69;;;8.35;85.53
40946;BME280;55635;50.264;11.918;2023-04-15T01:03:01;94492.16;;;8.57;84.92
40946;BME280;55635;50.264;11.918;2023-04-15T01:05:42;94492.59;;;8.61;85.29
40946;BME280;55635;50.264;11.918;2023-04-15T01:08:29;94495.41;;;8.46;85.24
40946;BME280;55635;50.264;11.918;2023-04-15T01:11:12;94497.03;;;8.41;85.46
40946;BME280;55635;50.264;11.918;2023-04-15T01:14:19;94495.19;;;8.48;85.38
40946;BME280;55635;50.264;11.918;2023-04-15T01:17:01;94491.97;;;8.52;85.51
40946;BME280;55635;50.264;11.918;2023-04-15T01:19:42;94490.16;;;8.53;85.50
40946;BME280;55635;50.264;11.918;2023-04-15T01:22:25;94484.63;;;8.48;85.41
40946;BME280;55635;50.264;11.918;2023-04-15T01:25:10;94489.09;;;8.54;85.28
40946;BME280;55635;50.264;11.918;2023-04-15T01:27:52;94482.41;;;8.51;85.58
40946;BME280;55635;50.264;11.918;2023-04-15T01:30:34;94491.16;;;8.58;84.67
40946;BME280;55635;50.264;11.918;2023-04-15T01:33:15;94494.00;;;8.44;86.62
40946;BME280;55635;50.264;11.918;2023-04-15T01:35:56;94472.47;;;8.60;84.76
40946;BME280;55635;50.264;11.918;2023-04-15T01:38:41;94477.72;;;8.53;85.26
40946;BME280;55635;50.264;11.918;2023-04-15T01:41:27;94467.97;;;8.54;84.59
40946;BME280;55635;50.264;11.918;2023-04-15T01:44:08;94478.53;;;8.54;85.04
40946;BME280;55635;50.264;11.918;2023-04-15T01:46:49;94476.81;;;8.27;87.41
40946;BME280;55635;50.264;11.918;2023-04-15T01:49:55;94476.28;;;8.31;87.46
40946;BME280;55635;50.264;11.918;2023-04-15T01:52:36;94465.53;;;8.39;86.45
40946;BME280;55635;50.264;11.918;2023-04-15T01:55:17;94458.72;;;8.17;87.76
40946;BME280;55635;50.264;11.918;2023-04-15T01:57:59;94467.31;;;8.32;86.92
40946;BME280;55635;50.264;11.918;2023-04-15T02:00:41;94462.66;;;8.28;87.53
40946;BME280;55635;50.264;11.918;2023-04-15T02:03:23;94462.84;;;8.33;87.27
40946;BME280;55635;50.264;11.918;2023-04-15T02:06:06;94472.41;;;8.34;86.75
40946;BME280;55635;50.264;11.918;2023-04-15T02:08:47;94464.69;;;8.39;87.20
40946;BME280;55635;50.264;11.918;2023-04-15T02:11:29;94456.78;;;8.39;86.34
40946;BME280;55635;50.264;11.918;2023-04-15T02:14:10;94455.88;;;8.12;87.50
40946;BME280;55635;50.264;11.918;2023-04-15T02:16:51;94451.31;;;8.40;86.03
40946;BME280;55635;50.264;11.918;2023-04-15T02:19:35;94448.13;;;8.10;86.53
40946;BME280;55635;50.264;11.918;2023-04-15T02:22:17;94459.63;;;8.31;86.36
40946;BME280;55635;50.264;11.918;2023-04-15T02:25:00;94445.53;;;8.17;86.47
40946;BME280;55635;50.264;11.918;2023-04-15T02:27:41;94448.38;;;8.15;87.57
40946;BME280;55635;50.264;11.918;2023-04-15T02:30:23;94436.94;;;8.02;88.00
40946;BME280;55635;50.264;11.918;2023-04-15T02:33:05;94445.53;;;8.17;87.23
40946;BME280;55635;50.264;11.918;2023-04-15T02:35:47;94448.59;;;8.20;87.59
40946;BME280;55635;50.264;11.918;2023-04-15T02:38:28;94444.69;;;8.16;87.04
40946;BME280;55635;50.264;11.918;2023-04-15T02:41:09;94445.16;;;8.27;87.16
40946;BME280;55635;50.264;11.918;2023-04-15T02:43:52;94441.94;;;8.31;86.45
40946;BME280;55635;50.264;11.918;2023-04-15T02:46:33;94442.94;;;8.30;87.02
40946;BME280;55635;50.264;11.918;2023-04-15T02:49:13;94445.78;;;8.35;86.88
40946;BME280;55635;50.264;11.918;2023-04-15T02:51:55;94451.72;;;8.44;86.77
40946;BME280;55635;50.264;11.918;2023-04-15T02:54:37;94456.16;;;8.37;87.68
40946;BME280;55635;50.264;11.918;2023-04-15T02:57:18;94451.47;;;8.32;87.44
40946;BME280;55635;50.264;11.918;2023-04-15T02:59:59;94458.19;;;8.41;86.96
40946;BME280;55635;50.264;11.918;2023-04-15T03:03:05;94458.19;;;8.28;87.17
40946;BME280;55635;50.264;11.918;2023-04-15T03:05:46;94448.06;;;8.32;87.82
40946;BME280;55635;50.264;11.918;2023-04-15T03:08:29;94449.44;;;8.28;87.79
40946;BME280;55635;50.264;11.918;2023-04-15T03:11:11;94454.72;;;8.28;87.32
40946;BME280;55635;50.264;11.918;2023-04-15T03:13:52;94444.78;;;8.30;86.94
40946;BME280;55635;50.264;11.918;2023-04-15T03:16:42;94442.06;;;8.10;88.18
40946;BME280;55635;50.264;11.918;2023-04-15T03:19:25;94454.13;;;8.39;86.47
40946;BME280;55635;50.264;11.918;2023-04-15T03:22:06;94447.25;;;8.38;86.58
40946;BME280;55635;50.264;11.918;2023-04-15T03:24:47;94447.34;;;8.16;87.16
40946;BME280;55635;50.264;11.918;2023-04-15T03:27:27;94439.00;;;8.06;87.53
40946;BME280;55635;50.264;11.918;2023-04-15T03:30:13;94444.69;;;8.16;86.63
40946;BME280;55635;50.264;11.918;2023-04-15T03:32:55;94438.19;;;8.06;86.56
40946;BME280;55635;50.264;11.918;2023-04-15T03:35:36;94435.34;;;8.07;86.36
40946;BME280;55635;50.264;11.918;2023-04-15T03:38:17;94437.91;;;7.81;87.57
40946;BME280;55635;50.264;11.918;2023-04-15T03:40:58;94445.28;;;8.05;87.20
40946;BME280;55635;50.264;11.918;2023-04-15T03:43:39;94441.84;;;8.11;87.04
40946;BME280;55635;50.264;11.918;2023-04-15T03:46:20;94444.50;;;8.11;86.75
40946;BME280;55635;50.264;11.918;2023-04-15T03:49:01;94442.28;;;8.21;86.69
40946;BME280;55635;50.264;11.918;2023-04-15T03:51:42;94440.44;;;8.15;86.97
40946;BME280;55635;50.264;11.918;2023-04-15T03:54:49;94433.53;;;8.14;86.65
40946;BME280;55635;50.264;11.918;2023-04-15T03:57:30;94423.19;;;8.19;86.18
40946;BME280;55635;50.264;11.918;2023-04-15T04:00:11;94427.84;;;8.17;86.48
40946;BME280;55635;50.264;11.918;2023-04-15T04:02:54;94422.19;;;8.27;86.52
40946;BME280;55635;50.264;11.918;2023-04-15T04:05:35;94418.31;;;8.23;86.57
40946;BME280;55635;50.264;11.918;2023-04-15T04:08:20;94411.63;;;8.27;87.46
40946;BME280;55635;50.264;11.918;2023-04-15T04:11:01;94418.53;;;8.21;86.93
40946;BME280;55635;50.264;11.918;2023-04-15T04:13:42;94413.03;;;8.23;86.76
40946;BME280;55635;50.264;11.918;2023-04-15T04:16:26;94408.97;;;8.20;86.82
40946;BME280;55635;50.264;11.918;2023-04-15T04:19:08;94408.13;;;8.00;87.11
40946;BME280;55635;50.264;11.918;2023-04-15T04:22:14;94407.72;;;7.97;87.54
40946;BME280;55635;50.264;11.918;2023-04-15T04:24:55;94421.75;;;8.10;87.15
40946;BME280;55635;50.264;11.918;2023-04-15T04:27:37;94417.50;;;8.09;86.83
40946;BME280;55635;50.264;11.918;2023-04-15T04:30:18;94419.91;;;7.98;87.06
40946;BME280;55635;50.264;11.918;2023-04-15T04:32:58;94429.91;;;8.15;86.61
40946;BME280;55635;50.264;11.918;2023-04-15T04:35:39;94417.28;;;7.98;86.23
40946;BME280;55635;50.264;11.918;2023-04-15T04:38:21;94423.38;;;8.11;86.29
40946;BME280;55635;50.264;11.918;2023-04-15T04:41:04;94432.06;;;7.99;86.54
40946;BME280;55635;50.264;11.918;2023-04-15T04:43:45;94421.88;;;7.89;87.07
40946;BME280;55635;50.264;11.918;2023-04-15T04:46:29;94413.97;;;7.83;87.67
40946;BME280;55635;50.264;11.918;2023-04-15T04:49:09;94421.84;;;7.76;87.50
40946;BME280;55635;50.264;11.918;2023-04-15T04:51:52;94420.25;;;7.82;87.86
40946;BME280;55635;50.264;11.918;2023-04-15T04:54:33;94423.06;;;7.80;87.36
40946;BME280;55635;50.264;11.918;2023-04-15T04:57:15;94417.78;;;7.80;87.20
40946;BME280;55635;50.264;11.918;2023-04-15T04:59:57;94421.88;;;7.89;86.62
40946;BME280;55635;50.264;11.918;2023-04-15T05:02:37;94423.84;;;7.74;87.26
40946;BME280;55635;50.264;11.918;2023-04-15T05:05:18;94420.38;;;7.60;88.38
40946;BME280;55635;50.264;11.918;2023-04-15T05:08:05;94427.53;;;7.73;88.27
40946;BME280;55635;50.264;11.918;2023-04-15T05:10:46;94426.59;;;7.53;88.09
40946;BME280;55635;50.264;11.918;2023-04-15T05:13:27;94431.19;;;7.79;87.71
40946;BME280;55635;50.264;11.918;2023-04-15T05:16:07;94433.56;;;7.60;88.18
40946;BME280;55635;50.264;11.918;2023-04-15T05:18:49;94432.84;;;7.80;87.81
40946;BME280;55635;50.264;11.918;2023-04-15T05:21:29;94442.78;;;7.84;87.38
40946;BME280;55635;50.264;11.918;2023-04-15T05:24:11;94443.19;;;7.81;87.50
40946;BME280;55635;50.264;11.918;2023-04-15T05:26:52;94441.38;;;7.88;87.08
40946;BME280;55635;50.264;11.918;2023-04-15T05:29:33;94440.34;;;7.89;87.20
40946;BME280;55635;50.264;11.918;2023-04-15T05:32:14;94436.53;;;7.98;87.48
40946;BME280;55635;50.264;11.918;2023-04-15T05:34:55;94435.91;;;7.90;86.86
40946;BME280;55635;50.264;11.918;2023-04-15T05:37:36;94439.16;;;7.98;86.93
40946;BME280;55635;50.264;11.918;2023-04-15T05:40:18;94445.47;;;7.97;87.27
40946;BME280;55635;50.264;11.918;2023-04-15T05:43:25;94439.16;;;7.92;87.28
40946;BME280;55635;50.264;11.918;2023-04-15T05:46:06;94435.09;;;7.96;87.51
40946;BME280;55635;50.264;11.918;2023-04-15T05:48:48;94428.00;;;7.96;88.07
40946;BME280;55635;50.264;11.918;2023-04-15T05:51:30;94437.31;;;7.92;88.09
40946;BME280;55635;50.264;11.918;2023-04-15T05:54:11;94438.16;;;7.99;87.88
40946;BME280;55635;50.264;11.918;2023-04-15T05:56:52;94440.84;;;8.12;87.29
40946;BME280;55635;50.264;11.918;2023-04-15T05:59:32;94435.97;;;8.09;87.41
40946;BME280;55635;50.264;11.918;2023-04-15T06:02:14;94448.38;;;8.15;87.45
40946;BME280;55635;50.264;11.918;2023-04-15T06:05:20;94433.91;;;8.05;87.91
40946;BME280;55635;50.264;11.918;2023-04-15T06:08:00;94436.41;;;8.13;87.88
40946;BME280;55635;50.264;11.918;2023-04-15T06:10:41;94451.25;;;8.27;87.49
40946;BME280;55635;50.264;11.918;2023-04-15T06:13:22;94459.81;;;8.36;87.27
40946;BME280;55635;50.264;11.918;2023-04-15T06:16:06;94458.19;;;8.41;86.30
40946;BME280;55635;50.264;11.918;2023-04-15T06:18:53;94457.81;;;8.38;86.56
40946;BME280;55635;50.264;11.918;2023-04-15T06:21:37;94457.19;;;8.36;86.57
40946;BME280;55635;50.264;11.918;2023-04-15T06:24:18;94450.81;;;8.23;86.86
40946;BME280;55635;50.264;11.918;2023-04-15T06:26:59;94459.41;;;8.32;87.18
40946;BME280;55635;50.264;11.918;2023-04-15T06:29:39;94456.16;;;8.37;87.46
40946;BME280;55635;50.264;11.918;2023-04-15T06:32:20;94465.13;;;8.42;87.49
40946;BME280;55635;50.264;11.918;2023-04-15T06:35:01;94464.72;;;8.52;86.76
40946;BME280;55635;50.264;11.918;2023-04-15T06:37:42;94475.69;;;8.49;86.59
40946;BME280;55635;50.264;11.918;2023-04-15T06:40:25;94472.66;;;8.52;86.55
40946;BME280;55635;50.264;11.918;2023-04-15T06:43:07;94466.38;;;8.53;86.89
40946;BME280;55635;50.264;11.918;2023-04-15T06:45:48;94467.56;;;8.50;86.33
40946;BME280;55635;50.264;11.918;2023-04-15T06:48:30;94466.78;;;8.50;86.53
40946;BME280;55635;50.264;11.918;2023-04-15T06:51:11;94463.72;;;8.66;86.10
40946;BME280;55635;50.264;11.918;2023-04-15T06:53:57;94470.66;;;8.73;85.72
40946;BME280;55635;50.264;11.918;2023-04-15T06:56:38;94470.00;;;8.45;86.04
40946;BME280;55635;50.264;11.918;2023-04-15T06:59:19;94474.91;;;8.55;86.71
40946;BME280;55635;50.264;11.918;2023-04-15T07:02:01;94470.66;;;8.67;86.18
40946;BME280;55635;50.264;11.918;2023-04-15T07:04:45;94478.16;;;8.63;86.24
40946;BME280;55635;50.264;11.918;2023-04-15T07:07:26;94464.50;;;8.40;86.34
40946;BME280;55635;50.264;11.918;2023-04-15T07:10:08;94486.28;;;8.55;86.64
40946;BME280;55635;50.264;11.918;2023-04-15T07:12:48;94485.66;;;8.60;87.10
40946;BME280;55635;50.264;11.918;2023-04-15T07:15:32;94470.03;;;8.58;86.92
40946;BME280;55635;50.264;11.918;2023-04-15T07:18:13;94481.81;;;8.56;87.12
40946;BME280;55635;50.264;11.918;2023-04-15T07:20:57;94478.34;;;8.49;86.86
40946;BME280;55635;50.264;11.918;2023-04-15T07:23:38;94476.13;;;8.52;87.69
40946;BME280;55635;50.264;11.918;2023-04-15T07:26:19;94485.88;;;8.58;87.77
40946;BME280;55635;50.264;11.918;2023-04-15T07:28:59;94487.91;;;8.69;86.97
40946;BME280;55635;50.264;11.918;2023-04-15T07:31:41;94482.03;;;8.74;86.64
40946;BME280;55635;50.264;11.918;2023-04-15T07:34:22;94483.84;;;8.60;86.82
40946;BME280;55635;50.264;11.918;2023-04-15T07:37:05;94478.78;;;8.72;86.92
40946;BME280;55635;50.264;11.918;2023-04-15T07:39:46;94485.88;;;8.78;86.49
40946;BME280;55635;50.264;11.918;2023-04-15T07:42:28;94496.03;;;8.74;86.13
40946;BME280;55635;50.264;11.918;2023-04-15T07:45:10;94491.41;;;8.83;86.90
40946;BME280;55635;50.264;11.918;2023-04-15T07:47:52;94496.47;;;8.91;86.53
40946;BME280;55635;50.264;11.918;2023-04-15T07:50:33;94501.78;;;8.91;85.70
40946;BME280;55635;50.264;11.918;2023-04-15T07:53:14;94496.22;;;8.60;85.81
40946;BME280;55635;50.264;11.918;2023-04-15T07:55:55;94510.50;;;8.79;85.88
40946;BME280;55635;50.264;11.918;2023-04-15T07:58:35;94514.38;;;8.89;85.30
40946;BME280;55635;50.264;11.918;2023-04-15T08:01:17;94516.81;;;8.84;85.65
40946;BME280;55635;50.264;11.918;2023-04-15T08:03:58;94513.34;;;8.90;85.63
40946;BME280;55635;50.264;11.918;2023-04-15T08:06:39;94512.56;;;8.90;85.39
40946;BME280;55635;50.264;11.918;2023-04-15T08:09:22;94515.59;;;8.87;85.89
40946;BME280;55635;50.264;11.918;2023-04-15T08:12:03;94515.19;;;8.83;86.10
40946;BME280;55635;50.264;11.918;2023-04-15T08:14:45;94512.72;;;8.75;85.23
40946;BME280;55635;50.264;11.918;2023-04-15T08:17:26;94509.69;;;8.91;86.10
40946;BME280;55635;50.264;11.918;2023-04-15T08:20:08;94514.38;;;9.02;86.40
40946;BME280;55635;50.264;11.918;2023-04-15T08:22:49;94528.00;;;9.12;85.83
40946;BME280;55635;50.264;11.918;2023-04-15T08:25:31;94521.31;;;9.16;85.95
40946;BME280;55635;50.264;11.918;2023-04-15T08:28:14;94529.81;;;9.05;85.38
40946;BME280;55635;50.264;11.918;2023-04-15T08:30:56;94532.06;;;9.08;84.95
40946;BME280;55635;50.264;11.918;2023-04-15T08:33:37;94528.22;;;9.17;84.96
40946;BME280;55635;50.264;11.918;2023-04-15T08:36:19;94520.09;;;9.19;84.77
40946;BME280;55635;50.264;11.918;2023-04-15T08:39:02;94528.00;;;9.12;84.55
40946;BME280;55635;50.264;11.918;2023-04-15T08:42:01;94531.28;;;9.27;84.73
40946;BME280;55635;50.264;11.918;2023-04-15T08:44:42;94535.75;;;9.40;83.93
40946;BME280;55635;50.264;11.918;2023-04-15T08:47:26;94530.88;;;9.44;83.97
40946;BME280;55635;50.264;11.918;2023-04-15T08:50:10;94542.44;;;9.56;84.33
40946;BME280;55635;50.264;11.918;2023-04-15T08:52:54;94547.75;;;9.49;84.46
40946;BME280;55635;50.264;11.918;2023-04-15T08:55:38;94537.56;;;9.40;84.46
40946;BME280;55635;50.264;11.918;2023-04-15T08:58:25;94538.38;;;9.34;84.11
40946;BME280;55635;50.264;11.918;2023-04-15T09:01:06;94541.25;;;9.25;83.74
40946;BME280;55635;50.264;11.918;2023-04-15T09:03:48;94547.13;;;9.27;84.91
40946;BME280;55635;50.264;11.918;2023-04-15T09:06:29;94539.59;;;9.18;84.95
40946;BME280;55635;50.264;11.918;2023-04-15T09:09:11;94534.50;;;9.29;85.23
40946;BME280;55635;50.264;11.918;2023-04-15T09:11:57;94537.97;;;9.37;84.29
40946;BME280;55635;50.264;11.918;2023-04-15T09:14:39;94525.56;;;9.24;84.86
40946;BME280;55635;50.264;11.918;2023-04-15T09:17:21;94541.44;;;9.30;84.32
40946;BME280;55635;50.264;11.918;2023-04-15T09:20:28;94562.19;;;9.53;84.07
40946;BME280;55635;50.264;11.918;2023-04-15T09:23:14;94559.34;;;9.28;84.49
40946;BME280;55635;50.264;11.918;2023-04-15T09:25:56;94557.06;;;8.99;84.64
40946;BME280;55635;50.264;11.918;2023-04-15T09:28:43;94573.00;;;9.39;84.70
40946;BME280;55635;50.264;11.918;2023-04-15T09:31:29;94573.59;;;9.54;85.04
40946;BME280;55635;50.264;11.918;2023-04-15T09:34:11;94568.72;;;9.44;84.57
40946;BME280;55635;50.264;11.918;2023-04-15T09:36:55;94564.25;;;9.38;84.62
40946;BME280;55635;50.264;11.918;2023-04-15T09:39:50;94568.09;;;9.49;84.36
40946;BME280;55635;50.264;11.918;2023-04-15T09:42:31;94579.09;;;9.59;84.20
40946;BME280;55635;50.264;11.918;2023-04-15T09:45:13;94569.50;;;9.58;84.01
40946;BME280;55635;50.264;11.918;2023-04-15T09:48:15;94570.56;;;9.50;84.06
40946;BME280;55635;50.264;11.918;2023-04-15T09:50:57;94568.50;;;9.46;84.50
40946;BME280;55635;50.264;11.918;2023-04-15T09:53:40;94576.03;;;9.62;84.82
40946;BME280;55635;50.264;11.918;2023-04-15T09:56:22;94564.81;;;9.66;84.35
40946;BME280;55635;50.264;11.918;2023-04-15T09:59:04;94577.66;;;9.63;84.36
40946;BME280;55635;50.264;11.918;2023-04-15T10:01:48;94568.09;;;9.62;84.34
40946;BME280;55635;50.264;11.918;2023-04-15T10:04:29;94586.81;;;9.80;83.86
40946;BME280;55635;50.264;11.918;2023-04-15T10:07:12;94565.03;;;9.78;84.07
40946;BME280;55635;50.264;11.918;2023-04-15T10:09:56;94582.94;;;9.76;84.02
40946;BME280;55635;50.264;11.918;2023-04-15T10:12:40;94564.81;;;9.66;83.91
40946;BME280;55635;50.264;11.918;2023-04-15T10:15:22;94580.09;;;9.84;83.57
40946;BME280;55635;50.264;11.918;2023-04-15T10:18:04;94572.56;;;9.88;83.29
40946;BME280;55635;50.264;11.918;2023-04-15T10:20:47;94583.94;;;9.81;84.40
40946;BME280;55635;50.264;11.918;2023-04-15T10:23:31;94584.97;;;9.94;83.45
40946;BME280;55635;50.264;11.918;2023-04-15T10:26:18;94587.38;;;10.08;82.97
40946;BME280;55635;50.264;11.918;2023-04-15T10:29:01;94577.59;;;10.09;82.82
40946;BME280;55635;50.264;11.918;2023-04-15T10:31:45;94587.56;;;10.20;82.16
40946;BME280;55635;50.264;11.918;2023-04-15T10:34:27;94591.25;;;9.99;82.53
40946;BME280;55635;50.264;11.918;2023-04-15T10:37:12;94576.16;;;10.19;83.31
40946;BME280;55635;50.264;11.918;2023-04-15T10:39:53;94585.75;;;10.14;82.09
40946;BME280;55635;50.264;11.918;2023-04-15T10:42:34;94571.88;;;10.18;82.53
40946;BME280;55635;50.264;11.918;2023-04-15T10:45:17;94596.47;;;10.38;82.54
40946;BME280;55635;50.264;11.918;2023-04-15T10:48:03;94588.38;;;10.33;82.46
40946;BME280;55635;50.264;11.918;2023-04-15T10:51:00;94574.47;;;10.38;82.53
40946;BME280;55635;50.264;11.918;2023-04-15T10:53:42;94598.06;;;10.53;82.03
40946;BME280;55635;50.264;11.918;2023-04-15T10:56:24;94584.25;;;10.37;81.68
40946;BME280;55635;50.264;11.918;2023-04-15T10:59:05;94587.47;;;10.46;81.58
40946;BME280;55635;50.264;11.918;2023-04-15T11:01:57;94604.34;;;10.58;80.63
40946;BME280;55635;50.264;11.918;2023-04-15T11:04:57;94600.69;;;10.53;81.27
40946;BME280;55635;50.264;11.918;2023-04-15T11:13:16;94594.41;;;10.47;81.22
40946;BME280;55635;50.264;11.918;2023-04-15T11:15:58;94595.22;;;10.54;81.43
40946;BME280;55635;50.264;11.918;2023-04-15T11:18:41;94601.19;;;10.36;81.82
40946;BME280;55635;50.264;11.918;2023-04-15T11:21:24;94601.31;;;10.55;80.79
40946;BME280;55635;50.264;11.918;2023-04-15T11:24:06;94605.84;;;10.48;82.13
40946;BME280;55635;50.264;11.918;2023-04-15T11:26:46;94615.88;;;10.32;81.66
40946;BME280;55635;50.264;11.918;2023-04-15T11:29:30;94615.41;;;10.49;81.75
40946;BME280;55635;50.264;11.918;2023-04-15T11:32:11;94612.81;;;10.29;82.48
40946;BME280;55635;50.264;11.918;2023-04-15T11:34:52;94616.50;;;9.95;82.92
40946;BME280;55635;50.264;11.918;2023-04-15T11:37:33;94622.63;;;10.02;82.79
40946;BME280;55635;50.264;11.918;2023-04-15T11:40:15;94619.16;;;9.89;83.11
40946;BME280;55635;50.264;11.918;2023-04-15T11:43:10;94629.75;;;10.08;84.24
40946;BME280;55635;50.264;11.918;2023-04-15T11:46:00;94631.97;;;10.24;83.51
40946;BME280;55635;50.264;11.918;2023-04-15T11:48:44;94631.56;;;10.27;83.46
40946;BME280;55635;50.264;11.918;2023-04-15T11:51:25;94638.47;;;10.35;83.06
40946;BME280;55635;50.264;11.918;2023-04-15T11:54:18;94640.94;;;10.30;82.43
40946;BME280;55635;50.264;11.918;2023-04-15T11:56:59;94638.72;;;10.27;83.72
40946;BME280;55635;50.264;11.918;2023-04-15T11:59:42;94628.69;;;10.35;83.42
40946;BME280;55635;50.264;11.918;2023-04-15T12:02:30;94640.88;;;10.43;82.80
40946;BME280;55635;50.264;11.918;2023-04-15T12:05:11;94642.34;;;10.46;82.27
40946;BME280;55635;50.264;11.918;2023-04-15T12:07:59;94653.53;;;10.41;82.93
40946;BME280;55635;50.264;11.918;2023-04-15T12:10:40;94645.19;;;10.44;82.35
40946;BME280;55635;50.264;11.918;2023-04-15T12:13:21;94656.97;;;10.55;82.94
40946;BME280;55635;50.264;11.918;2023-04-15T12:16:05;94654.50;;;10.66;82.13
40946;BME280;55635;50.264;11.918;2023-04-15T12:18:56;94662.88;;;10.63;83.01
40946;BME280;55635;50.264;11.918;2023-04-15T12:21:44;94672.91;;;10.48;82.57
40946;BME280;55635;50.264;11.918;2023-04-15T12:24:30;94667.44;;;10.36;83.17
40946;BME280;55635;50.264;11.918;2023-04-15T12:27:12;94669.47;;;10.28;83.69
40946;BME280;55635;50.264;11.918;2023-04-15T12:30:04;94672.28;;;10.46;83.85
40946;BME280;55635;50.264;11.918;2023-04-15T12:32:45;94672.69;;;10.43;83.35
40946;BME280;55635;50.264;11.918;2023-04-15T12:35:28;94684.75;;;10.46;83.67
40946;BME280;55635;50.264;11.918;2023-04-15T12:38:09;94685.97;;;10.36;84.31
40946;BME280;55635;50.264;11.918;2023-04-15T12:40:50;94687.75;;;10.49;84.91
40946;BME280;55635;50.264;11.918;2023-04-15T12:43:31;94702.06;;;10.48;83.82
40946;BME280;55635;50.264;11.918;2023-04-15T12:46:13;94700.38;;;10.67;83.66
40946;BME280;55635;50.264;11.918;2023-04-15T12:48:56;94688.56;;;10.56;83.65
40946;BME280;55635;50.264;11.918;2023-04-15T12:51:37;94695.94;;;10.41;83.91
40946;BME280;55635;50.264;11.918;2023-04-15T12:54:18;94704.44;;;10.69;84.58
40946;BME280;55635;50.264;11.918;2023-04-15T12:57:01;94697.09;;;10.65;83.73
40946;BME280;55635;50.264;11.918;2023-04-15T12:59:42;94715.25;;;10.68;83.31
40946;BME280;55635;50.264;11.918;2023-04-15T13:02:23;94715.50;;;10.53;84.29
40946;BME280;55635;50.264;11.918;2023-04-15T13:05:12;94719.97;;;10.59;84.31
40946;BME280;55635;50.264;11.918;2023-04-15T13:07:55;94710.84;;;10.22;84.70
40946;BME280;55635;50.264;11.918;2023-04-15T13:10:36;94725.69;;;10.50;85.14
40946;BME280;55635;50.264;11.918;2023-04-15T13:13:18;94729.97;;;10.51;84.71
40946;BME280;55635;50.264;11.918;2023-04-15T13:16:00;94726.69;;;10.55;84.30
40946;BME280;55635;50.264;11.918;2023-04-15T13:18:43;94729.97;;;10.37;83.75
40946;BME280;55635;50.264;11.918;2023-04-15T13:21:31;94728.97;;;10.45;84.56
40946;BME280;55635;50.264;11.918;2023-04-15T13:24:14;94735.28;;;10.51;84.45
40946;BME280;55635;50.264;11.918;2023-04-15T13:26:55;94742.81;;;10.27;84.63
40946;BME280;55635;50.264;11.918;2023-04-15T13:29:38;94745.88;;;10.31;85.41
40946;BME280;55635;50.264;11.918;2023-04-15T13:32:25;94746.69;;;10.31;85.44
40946;BME280;55635;50.264;11.918;2023-04-15T13:35:06;94739.75;;;10.50;85.22
40946;BME280;55635;50.264;11.918;2023-04-15T13:37:49;94740.78;;;10.43;85.14
40946;BME280;55635;50.264;11.918;2023-04-15T13:40:30;94752.78;;;10.58;84.97
40946;BME280;55635;50.264;11.918;2023-04-15T13:43:11;94750.53;;;10.55;84.65
40946;BME280;55635;50.264;11.918;2023-04-15T13:45:54;94759.53;;;10.48;84.82
40946;BME280;55635;50.264;11.918;2023-04-15T13:48:36;94751.41;;;10.36;84.79
40946;BME280;55635;50.264;11.918;2023-04-15T13:51:21;94759.53;;;10.34;85.54
40946;BME280;55635;50.264;11.918;2023-04-15T13:54:02;94751.19;;;10.24;85.07
40946;BME280;55635;50.264;11.918;2023-04-15T13:56:43;94756.09;;;10.14;86.08
40946;BME280;55635;50.264;11.918;2023-04-15T13:59:49;94753.19;;;10.09;86.06
40946;BME280;55635;50.264;11.918;2023-04-15T14:02:30;94763.63;;;10.17;86.01
40946;BME280;55635;50.264;11.918;2023-04-15T14:05:11;94764.41;;;10.11;86.03
40946;BME280;55635;50.264;11.918;2023-04-15T14:07:52;94761.53;;;10.06;86.79
40946;BME280;55635;50.264;11.918;2023-04-15T14:10:34;94755.00;;;9.89;87.22
40946;BME280;55635;50.264;11.918;2023-04-15T14:13:15;94773.81;;;10.20;87.21
40946;BME280;55635;50.264;11.918;2023-04-15T14:15:56;94777.88;;;10.29;86.83
40946;BME280;55635;50.264;11.918;2023-04-15T14:18:38;94775.44;;;10.34;86.63
40946;BME280;55635;50.264;11.918;2023-04-15T14:21:19;94773.00;;;10.33;87.44
40946;BME280;55635;50.264;11.918;2023-04-15T14:24:00;94782.97;;;10.44;86.94
40946;BME280;55635;50.264;11.918;2023-04-15T14:26:42;94780.50;;;10.49;86.48